Time;durP1;ratioP1;P1;durP2;ratioP2;P2;SDS_P1;SDS_P2;PMS_P1;PMS_P2;Temp;Humidity;BMP_temperature;BMP_pressure;BME280_temperature;BME280_humidity;BME280_pressure;Samples;Min_cycle;Max_cycle;Signal;HPM_P1;HPM_P2
2021/07/19 00:01:46;;;;;;;0.50;0.40;;;17.10;99.90;;;;;;5040400;28;20513;-84
2021/07/19 00:04:13;;;;;;;0.50;0.40;;;17.10;99.90;;;;;;5040639;28;20451;-84
2021/07/19 00:06:41;;;;;;;0.50;0.40;;;17.00;99.90;;;;;;5040791;28;20449;-85
2021/07/19 00:09:08;;;;;;;0.50;0.30;;;17.00;99.90;;;;;;5040252;28;20482;-85
2021/07/19 00:11:35;;;;;;;0.50;0.30;;;17.00;99.90;;;;;;5040620;28;20462;-84
2021/07/19 00:14:01;;;;;;;0.50;0.40;;;17.00;99.90;;;;;;5040205;28;20457;-85
2021/07/19 00:16:28;;;;;;;0.50;0.50;;;17.00;99.90;;;;;;5040436;28;20843;-85
2021/07/19 00:18:55;;;;;;;0.60;0.50;;;17.10;99.90;;;;;;5040777;28;20521;-83
2021/07/19 00:21:22;;;;;;;0.60;0.40;;;17.00;99.90;;;;;;5039817;28;20463;-85
2021/07/19 00:23:50;;;;;;;0.50;0.37;;;17.00;99.90;;;;;;5040415;28;20446;-84
2021/07/19 00:26:19;;;;;;;0.50;0.30;;;17.00;99.90;;;;;;5040106;28;20442;-83
2021/07/19 00:28:46;;;;;;;0.50;0.40;;;17.00;99.90;;;;;;5039892;28;20478;-85
2021/07/19 00:31:13;;;;;;;0.80;0.80;;;16.90;99.90;;;;;;5038952;28;20477;-83
2021/07/19 00:33:39;;;;;;;0.50;0.40;;;16.90;99.90;;;;;;5040186;28;20460;-84
2021/07/19 00:36:07;;;;;;;0.50;0.30;;;16.80;99.90;;;;;;5040355;28;20453;-85
2021/07/19 00:38:34;;;;;;;0.50;0.40;;;16.80;99.90;;;;;;5040907;28;20433;-85
2021/07/19 00:41:02;;;;;;;0.50;0.37;;;16.70;99.90;;;;;;5039544;28;20442;-84
2021/07/19 00:43:29;;;;;;;0.50;0.30;;;16.70;99.90;;;;;;5039656;28;20961;-84
2021/07/19 00:45:56;;;;;;;0.50;0.30;;;16.60;99.90;;;;;;5039538;28;20501;-86
2021/07/19 00:48:22;;;;;;;0.50;0.30;;;16.50;99.90;;;;;;5039981;28;20508;-85
2021/07/19 00:50:50;;;;;;;0.50;0.40;;;16.50;99.90;;;;;;5039705;28;20445;-84
2021/07/19 00:53:17;;;;;;;0.50;0.40;;;16.50;99.90;;;;;;5040136;28;20446;-84
2021/07/19 00:55:46;;;;;;;0.50;0.40;;;16.50;99.90;;;;;;5040070;28;20442;-84
2021/07/19 00:58:15;;;;;;;0.50;0.37;;;16.40;99.90;;;;;;5039676;28;20442;-83
2021/07/19 01:00:43;;;;;;;0.50;0.40;;;16.40;99.90;;;;;;5039149;28;20781;-84
2021/07/19 01:03:11;;;;;;;0.50;0.40;;;16.40;99.90;;;;;;5039636;28;20449;-84
2021/07/19 01:05:40;;;;;;;0.50;0.30;;;16.40;99.90;;;;;;5039582;28;20439;-84
2021/07/19 01:08:08;;;;;;;0.50;0.40;;;16.30;99.90;;;;;;5039184;28;20487;-85
2021/07/19 01:10:35;;;;;;;0.50;0.30;;;16.30;99.90;;;;;;5039363;28;20543;-84
2021/07/19 01:13:03;;;;;;;0.50;0.40;;;16.30;99.90;;;;;;5038705;28;20462;-85
2021/07/19 01:15:34;;;;;;;0.50;0.30;;;16.30;99.90;;;;;;5038773;28;20445;-85
2021/07/19 01:18:01;;;;;;;0.50;0.40;;;16.20;99.90;;;;;;5039456;28;20446;-84
2021/07/19 01:20:31;;;;;;;0.50;0.40;;;16.20;99.90;;;;;;5038675;28;20452;-85
2021/07/19 01:23:16;;;;;;;0.50;0.40;;;16.10;99.90;;;;;;5039540;28;20469;-85
2021/07/19 01:26:07;;;;;;;0.50;0.40;;;16.00;99.90;;;;;;5038125;28;20507;-81
2021/07/19 01:28:42;;;;;;;0.50;0.40;;;16.00;99.90;;;;;;5038539;28;20423;-85
2021/07/19 01:31:13;;;;;;;0.50;0.40;;;16.00;99.90;;;;;;5038456;28;20466;-85
2021/07/19 01:33:44;;;;;;;0.50;0.30;;;16.00;99.90;;;;;;5037988;28;20442;-85
2021/07/19 01:36:12;;;;;;;0.50;0.40;;;15.90;99.90;;;;;;5038869;28;20826;-85
2021/07/19 01:38:39;;;;;;;0.50;0.40;;;15.90;99.90;;;;;;5038669;28;20442;-85
2021/07/19 01:41:07;;;;;;;0.50;0.30;;;15.90;99.90;;;;;;5038674;28;20469;-84
2021/07/19 01:43:34;;;;;;;0.50;0.40;;;15.90;99.90;;;;;;5038592;28;20448;-85
2021/07/19 01:46:05;;;;;;;0.50;0.40;;;15.80;99.90;;;;;;5038258;28;20450;-85
2021/07/19 01:48:35;;;;;;;0.50;0.40;;;15.80;99.90;;;;;;5038842;28;20453;-83
2021/07/19 01:51:02;;;;;;;0.60;0.60;;;15.80;99.90;;;;;;5037970;28;20811;-85
2021/07/19 01:53:30;;;;;;;0.50;0.40;;;15.80;99.90;;;;;;5038431;28;20442;-85
2021/07/19 01:55:58;;;;;;;0.50;0.40;;;15.70;99.90;;;;;;5038086;28;21180;-83
2021/07/19 01:58:25;;;;;;;0.50;0.40;;;15.80;99.90;;;;;;5038402;28;20439;-85
2021/07/19 02:00:53;;;;;;;0.50;0.30;;;15.80;99.90;;;;;;5037949;28;20449;-84
2021/07/19 02:03:21;;;;;;;0.50;0.40;;;15.70;99.90;;;;;;5038158;28;20446;-84
2021/07/19 02:05:50;;;;;;;0.50;0.40;;;15.70;99.90;;;;;;5037837;28;20491;-84
2021/07/19 02:08:17;;;;;;;0.50;0.30;;;15.60;99.90;;;;;;5038193;28;20448;-85
2021/07/19 02:10:47;;;;;;;0.50;0.40;;;15.60;99.90;;;;;;5037407;28;20480;-83
2021/07/19 02:13:15;;;;;;;0.50;0.40;;;15.60;99.90;;;;;;5037759;28;20423;-84
2021/07/19 02:15:42;;;;;;;0.50;0.40;;;15.50;99.90;;;;;;5037892;28;20430;-85
2021/07/19 02:18:12;;;;;;;0.50;0.40;;;15.50;99.90;;;;;;5037523;28;20443;-85
2021/07/19 02:20:44;;;;;;;0.50;0.40;;;15.50;99.90;;;;;;5046823;28;20453;-84
2021/07/19 02:23:11;;;;;;;0.50;0.30;;;15.40;99.90;;;;;;5039433;28;20810;-84
2021/07/19 02:25:40;;;;;;;0.50;0.40;;;15.40;99.90;;;;;;5038386;28;20444;-83
2021/07/19 02:28:08;;;;;;;0.50;0.40;;;15.40;99.90;;;;;;5039489;28;20438;-85
2021/07/19 02:30:36;;;;;;;0.50;0.30;;;15.40;99.90;;;;;;5038773;28;20536;-85
2021/07/19 02:33:03;;;;;;;0.50;0.40;;;15.30;99.90;;;;;;5038360;28;20458;-85
2021/07/19 02:35:31;;;;;;;0.50;0.40;;;15.30;99.90;;;;;;5038383;28;20987;-84
2021/07/19 02:38:02;;;;;;;0.50;0.30;;;15.30;99.90;;;;;;5039162;28;20478;-84
2021/07/19 02:40:30;;;;;;;0.50;0.40;;;15.20;99.90;;;;;;5037761;28;20475;-85
2021/07/19 02:42:58;;;;;;;0.50;0.40;;;15.20;99.90;;;;;;5038768;28;20462;-85
2021/07/19 02:45:28;;;;;;;4.20;3.23;;;15.20;99.90;;;;;;5038341;28;20439;-85
2021/07/19 02:47:55;;;;;;;0.50;0.40;;;15.20;99.90;;;;;;5038599;28;20441;-84
2021/07/19 02:50:24;;;;;;;0.50;0.40;;;15.10;99.90;;;;;;5037538;28;20478;-84
2021/07/19 02:52:53;;;;;;;0.50;0.40;;;15.10;99.90;;;;;;5038089;28;20468;-84
2021/07/19 02:55:22;;;;;;;0.50;0.40;;;15.00;99.90;;;;;;5037799;28;20454;-83
2021/07/19 02:57:48;;;;;;;0.50;0.40;;;14.90;99.90;;;;;;5038198;28;20439;-85
2021/07/19 03:00:17;;;;;;;0.50;0.40;;;14.90;99.90;;;;;;5037724;28;20436;-80
2021/07/19 03:02:47;;;;;;;0.50;0.40;;;14.90;99.90;;;;;;5038152;28;20488;-85
2021/07/19 03:05:15;;;;;;;0.50;0.40;;;14.90;99.90;;;;;;5037682;28;20441;-84
2021/07/19 03:07:45;;;;;;;0.50;0.40;;;14.80;99.90;;;;;;5037372;28;20962;-83
2021/07/19 03:10:12;;;;;;;0.50;0.40;;;14.80;99.90;;;;;;5037762;28;20490;-83
2021/07/19 03:12:42;;;;;;;0.50;0.40;;;14.80;99.90;;;;;;5037942;28;20492;-84
2021/07/19 03:15:10;;;;;;;0.50;0.40;;;14.80;99.90;;;;;;5037732;28;20452;-84
2021/07/19 03:17:39;;;;;;;0.50;0.40;;;14.80;99.90;;;;;;5038002;28;20467;-84
2021/07/19 03:20:09;;;;;;;0.50;0.30;;;14.80;99.90;;;;;;5038098;28;20523;-84
2021/07/19 03:22:38;;;;;;;0.50;0.40;;;14.90;99.90;;;;;;5037324;28;20459;-84
2021/07/19 03:25:08;;;;;;;0.50;0.40;;;14.90;99.90;;;;;;5036950;28;20498;-81
2021/07/19 03:27:36;;;;;;;0.50;0.40;;;14.90;99.90;;;;;;5038318;28;20432;-84
2021/07/19 03:30:05;;;;;;;0.50;0.40;;;14.90;99.90;;;;;;5037000;28;20491;-82
2021/07/19 03:32:33;;;;;;;0.50;0.40;;;14.90;99.90;;;;;;5037265;28;20469;-84
2021/07/19 03:35:02;;;;;;;0.50;0.30;;;14.90;99.90;;;;;;5036935;28;20440;-82
2021/07/19 03:37:29;;;;;;;0.50;0.40;;;14.90;99.90;;;;;;5036493;28;20838;-83
2021/07/19 03:39:56;;;;;;;0.50;0.30;;;14.80;99.90;;;;;;5036978;28;20440;-84
2021/07/19 03:42:23;;;;;;;0.50;0.37;;;14.90;99.90;;;;;;5036713;28;20464;-83
2021/07/19 03:44:51;;;;;;;0.50;0.40;;;14.90;99.90;;;;;;5037074;28;20453;-83
2021/07/19 03:47:21;;;;;;;0.50;0.40;;;14.90;99.90;;;;;;5036871;28;20527;-83
2021/07/19 03:49:48;;;;;;;0.50;0.40;;;15.00;99.90;;;;;;5036827;28;21111;-83
2021/07/19 03:52:17;;;;;;;0.50;0.40;;;15.00;99.90;;;;;;5037771;28;20458;-82
2021/07/19 03:54:43;;;;;;;0.53;0.33;;;15.10;99.90;;;;;;5036818;28;20450;-82
2021/07/19 03:57:11;;;;;;;0.50;0.40;;;15.10;99.90;;;;;;5035916;28;20434;-81
2021/07/19 03:59:38;;;;;;;0.50;0.30;;;15.10;99.90;;;;;;5035522;28;20440;-81
2021/07/19 04:02:11;;;;;;;0.50;0.30;;;15.10;99.90;;;;;;5036352;28;20827;-81
2021/07/19 04:04:41;;;;;;;0.50;0.40;;;15.10;99.90;;;;;;5036107;28;20481;-81
2021/07/19 04:07:09;;;;;;;0.50;0.40;;;15.10;99.90;;;;;;5037575;28;20461;-82
2021/07/19 04:09:38;;;;;;;0.50;0.30;;;15.20;99.90;;;;;;5039928;28;20473;-81
2021/07/19 04:12:06;;;;;;;0.50;0.40;;;15.30;99.90;;;;;;5039874;28;20457;-82
2021/07/19 04:14:33;;;;;;;0.50;0.30;;;15.30;99.90;;;;;;5039841;28;20457;-82
2021/07/19 04:17:00;;;;;;;1.47;1.37;;;15.40;99.90;;;;;;5039993;28;20476;-82
2021/07/19 04:19:28;;;;;;;0.50;0.40;;;15.50;99.90;;;;;;5039498;28;20446;-82
2021/07/19 04:21:56;;;;;;;0.50;0.40;;;15.50;99.90;;;;;;5039711;28;20874;-82
2021/07/19 04:24:23;;;;;;;0.50;0.30;;;15.50;99.90;;;;;;5040503;28;20438;-81
2021/07/19 04:26:51;;;;;;;0.50;0.40;;;15.50;99.90;;;;;;5039036;28;20981;-82
2021/07/19 04:29:21;;;;;;;0.50;0.40;;;15.60;99.90;;;;;;5051018;28;20792;-82
2021/07/19 04:31:52;;;;;;;0.50;0.40;;;15.60;99.90;;;;;;5039100;28;20529;-80
2021/07/19 04:34:26;;;;;;;0.50;0.40;;;15.70;99.90;;;;;;5038298;28;20425;-82
2021/07/19 04:36:53;;;;;;;0.50;0.40;;;15.80;99.90;;;;;;5042508;28;20431;-80
2021/07/19 04:39:21;;;;;;;0.50;0.40;;;15.80;99.90;;;;;;5045362;28;20440;-81
2021/07/19 04:41:48;;;;;;;0.50;0.40;;;15.80;99.90;;;;;;5045499;28;20878;-80
2021/07/19 04:44:14;;;;;;;0.50;0.30;;;15.80;99.90;;;;;;5039210;28;20843;-81
2021/07/19 04:46:41;;;;;;;0.50;0.37;;;15.80;99.90;;;;;;5040468;28;20827;-82
2021/07/19 04:49:08;;;;;;;0.50;0.33;;;15.80;99.90;;;;;;5039771;28;20442;-82
2021/07/19 04:51:35;;;;;;;0.50;0.30;;;15.90;99.90;;;;;;5039172;28;20482;-83
2021/07/19 04:54:04;;;;;;;0.50;0.30;;;15.90;99.90;;;;;;5039010;28;20442;-83
2021/07/19 04:56:33;;;;;;;0.50;0.30;;;15.90;99.90;;;;;;5039024;28;20441;-82
2021/07/19 04:59:03;;;;;;;0.50;0.40;;;15.90;99.90;;;;;;5038889;28;20441;-79
2021/07/19 05:01:30;;;;;;;0.50;0.40;;;16.00;99.90;;;;;;5038897;28;20887;-83
2021/07/19 05:03:59;;;;;;;0.80;0.80;;;16.00;99.90;;;;;;5038864;28;20435;-83
2021/07/19 05:06:27;;;;;;;0.50;0.30;;;16.20;99.90;;;;;;5038831;28;20438;-83
2021/07/19 05:08:56;;;;;;;0.50;0.30;;;16.30;99.90;;;;;;5042248;28;20820;-83
2021/07/19 05:11:25;;;;;;;0.50;0.40;;;16.50;99.90;;;;;;5038538;28;20987;-85
2021/07/19 05:13:54;;;;;;;0.50;0.40;;;16.60;99.90;;;;;;5039163;28;20951;-81
2021/07/19 05:16:21;;;;;;;1.30;1.30;;;16.70;99.90;;;;;;5039017;28;20441;-85
2021/07/19 05:18:49;;;;;;;0.50;0.30;;;16.90;99.90;;;;;;5038516;28;20629;-85
2021/07/19 05:21:16;;;;;;;0.50;0.40;;;17.00;99.90;;;;;;5038834;28;20986;-85
2021/07/19 05:23:45;;;;;;;0.50;0.30;;;17.20;99.90;;;;;;5039094;28;20435;-85
2021/07/19 05:26:14;;;;;;;0.50;0.37;;;17.30;99.90;;;;;;5038578;28;20470;-84
2021/07/19 05:28:41;;;;;;;0.50;0.30;;;17.40;99.90;;;;;;5039126;28;20994;-85
2021/07/19 05:31:09;;;;;;;0.50;0.30;;;17.50;99.90;;;;;;5038670;28;20497;-85
2021/07/19 05:33:35;;;;;;;0.50;0.40;;;17.70;99.90;;;;;;5039076;28;20451;-85
2021/07/19 05:36:02;;;;;;;5.17;3.40;;;17.80;99.90;;;;;;5046815;28;20442;-85
2021/07/19 05:38:30;;;;;;;1.37;1.23;;;17.90;99.90;;;;;;5040099;28;20450;-85
2021/07/19 05:40:57;;;;;;;0.50;0.40;;;18.10;99.90;;;;;;5040441;28;20477;-84
2021/07/19 05:43:23;;;;;;;0.60;0.50;;;18.30;99.90;;;;;;5039556;28;20438;-83
2021/07/19 05:45:50;;;;;;;0.50;0.40;;;18.40;99.90;;;;;;5039462;28;20438;-84
2021/07/19 05:48:18;;;;;;;0.50;0.37;;;18.50;99.90;;;;;;5039104;28;20435;-84
2021/07/19 05:50:45;;;;;;;0.50;0.40;;;18.60;99.90;;;;;;5036886;28;20880;-85
2021/07/19 05:53:11;;;;;;;0.53;0.47;;;18.70;99.90;;;;;;5037182;28;20462;-83
2021/07/19 05:55:38;;;;;;;0.50;0.30;;;18.90;99.90;;;;;;5038656;28;20431;-83
2021/07/19 05:58:05;;;;;;;0.50;0.30;;;19.00;99.90;;;;;;5038165;28;20441;-85
2021/07/19 06:00:32;;;;;;;0.50;0.30;;;19.20;99.90;;;;;;5037711;28;20438;-84
2021/07/19 06:02:59;;;;;;;0.50;0.30;;;19.30;99.90;;;;;;5037525;28;20458;-84
2021/07/19 06:05:28;;;;;;;0.50;0.30;;;19.50;99.90;;;;;;5037442;28;20962;-84
2021/07/19 06:07:54;;;;;;;0.50;0.30;;;19.60;99.90;;;;;;5037332;28;20450;-83
2021/07/19 06:10:21;;;;;;;0.50;0.30;;;19.70;99.90;;;;;;5036994;28;20474;-83
2021/07/19 06:12:48;;;;;;;0.50;0.40;;;19.80;99.90;;;;;;5036495;28;20458;-83
2021/07/19 06:15:16;;;;;;;0.50;0.30;;;19.80;99.90;;;;;;5036608;28;20476;-84
2021/07/19 06:17:43;;;;;;;0.50;0.30;;;19.90;99.90;;;;;;5036595;28;20438;-83
2021/07/19 06:20:12;;;;;;;3.03;2.83;;;20.00;99.90;;;;;;5036565;28;20443;-82
2021/07/19 06:22:41;;;;;;;0.50;0.30;;;20.00;99.90;;;;;;5035757;28;20879;-83
2021/07/19 06:25:09;;;;;;;0.50;0.30;;;20.10;99.90;;;;;;5035798;28;20537;-83
2021/07/19 06:27:36;;;;;;;0.50;0.30;;;20.10;99.90;;;;;;5035935;28;20447;-83
2021/07/19 06:30:03;;;;;;;0.50;0.30;;;20.20;99.90;;;;;;5034639;28;20504;-83
2021/07/19 06:32:30;;;;;;;0.50;0.40;;;20.20;99.90;;;;;;5040936;28;20456;-83
2021/07/19 06:34:57;;;;;;;0.50;0.30;;;20.40;99.90;;;;;;5055928;28;20445;-82
2021/07/19 06:37:24;;;;;;;0.50;0.40;;;20.50;99.90;;;;;;5054761;28;20457;-79
2021/07/19 06:39:52;;;;;;;0.50;0.40;;;20.60;99.90;;;;;;5047036;28;20803;-83
2021/07/19 06:42:19;;;;;;;0.50;0.30;;;20.60;99.90;;;;;;5034450;28;20461;-83
2021/07/19 06:44:47;;;;;;;1.47;1.37;;;20.70;99.90;;;;;;5034551;28;20438;-84
2021/07/19 06:47:14;;;;;;;0.50;0.30;;;20.90;99.90;;;;;;5035215;28;20442;-83
2021/07/19 06:49:40;;;;;;;0.50;0.30;;;21.00;99.90;;;;;;5035003;28;20447;-83
2021/07/19 06:52:07;;;;;;;0.50;0.30;;;21.10;99.90;;;;;;5034968;28;20833;-81
2021/07/19 06:54:34;;;;;;;1.10;0.97;;;21.20;99.90;;;;;;5035016;28;20442;-84
2021/07/19 06:57:02;;;;;;;0.50;0.30;;;21.30;99.90;;;;;;5035827;28;20457;-83
2021/07/19 06:59:28;;;;;;;0.50;0.30;;;21.20;99.90;;;;;;5035623;28;20457;-83
2021/07/19 07:01:55;;;;;;;0.80;0.73;;;21.10;99.90;;;;;;5035343;28;20823;-83
2021/07/19 07:04:22;;;;;;;0.50;0.30;;;21.10;99.90;;;;;;5035483;28;20443;-84
2021/07/19 07:06:48;;;;;;;0.50;0.30;;;21.10;99.90;;;;;;5034435;28;20443;-84
2021/07/19 07:09:15;;;;;;;0.50;0.30;;;21.10;99.90;;;;;;5034378;28;20855;-83
2021/07/19 07:11:42;;;;;;;7.73;1.37;;;21.20;99.90;;;;;;5034726;28;20495;-83
2021/07/19 07:14:10;;;;;;;0.50;0.30;;;21.30;99.90;;;;;;5034308;28;20467;-84
2021/07/19 07:16:37;;;;;;;0.50;0.30;;;21.30;99.90;;;;;;5034489;28;20445;-83
2021/07/19 07:19:04;;;;;;;0.80;0.73;;;21.20;99.90;;;;;;5034118;28;20842;-83
2021/07/19 07:21:31;;;;;;;0.60;0.60;;;21.10;99.90;;;;;;5034526;28;20468;-83
2021/07/19 07:23:58;;;;;;;0.50;0.30;;;21.10;99.90;;;;;;5033438;28;20956;-83
2021/07/19 07:26:26;;;;;;;0.50;0.30;;;21.00;99.90;;;;;;5034697;28;20449;-83
2021/07/19 07:28:53;;;;;;;0.60;0.47;;;21.00;99.90;;;;;;5034407;28;20475;-83
2021/07/19 07:31:25;;;;;;;0.50;0.40;;;20.80;99.90;;;;;;5033692;28;20485;-83
2021/07/19 07:33:52;;;;;;;0.50;0.30;;;20.80;99.90;;;;;;5034404;28;20454;-83
2021/07/19 07:36:18;;;;;;;0.50;0.40;;;20.80;99.90;;;;;;5034105;28;20448;-83
2021/07/19 07:38:45;;;;;;;0.50;0.30;;;21.00;99.90;;;;;;5034379;28;20446;-83
2021/07/19 07:41:12;;;;;;;0.50;0.30;;;21.00;99.90;;;;;;5035380;28;20454;-83
2021/07/19 07:43:39;;;;;;;0.50;0.30;;;21.10;99.90;;;;;;5037648;28;20443;-84
2021/07/19 07:46:05;;;;;;;0.50;0.40;;;21.20;99.90;;;;;;5037496;28;20440;-84
2021/07/19 07:48:35;;;;;;;0.50;0.30;;;21.30;99.90;;;;;;5037816;28;20497;-84
2021/07/19 07:51:02;;;;;;;0.50;0.40;;;21.30;99.90;;;;;;5036974;28;20483;-84
2021/07/19 07:53:28;;;;;;;0.50;0.30;;;21.30;99.90;;;;;;5037381;28;20445;-83
2021/07/19 07:55:57;;;;;;;0.50;0.30;;;21.20;99.90;;;;;;5037470;28;20454;-81
2021/07/19 07:58:24;;;;;;;0.50;0.37;;;21.20;99.90;;;;;;5036946;28;20498;-81
2021/07/19 08:00:51;;;;;;;13.00;2.83;;;21.30;99.90;;;;;;5037827;28;20517;-84
2021/07/19 08:03:18;;;;;;;0.50;0.30;;;21.40;99.90;;;;;;5037392;28;20446;-84
2021/07/19 08:05:46;;;;;;;0.50;0.30;;;21.70;99.90;;;;;;5037528;28;20500;-83
2021/07/19 08:08:13;;;;;;;0.50;0.30;;;22.00;99.90;;;;;;5038100;28;20451;-84
2021/07/19 08:10:39;;;;;;;0.50;0.30;;;22.10;99.90;;;;;;5038231;28;20451;-84
2021/07/19 08:13:08;;;;;;;0.87;0.60;;;22.00;99.90;;;;;;5038813;28;20463;-84
2021/07/19 08:15:36;;;;;;;0.70;0.43;;;22.00;99.90;;;;;;5038607;28;20454;-84
2021/07/19 08:18:03;;;;;;;0.90;0.80;;;21.90;99.90;;;;;;5038290;28;20803;-83
2021/07/19 08:20:30;;;;;;;2.07;1.87;;;21.90;99.90;;;;;;5037016;28;20439;-86
2021/07/19 08:22:58;;;;;;;0.50;0.30;;;21.80;99.90;;;;;;5038800;28;20464;-85
2021/07/19 08:25:25;;;;;;;0.50;0.30;;;21.70;99.90;;;;;;5038678;28;20441;-83
2021/07/19 08:27:52;;;;;;;0.50;0.30;;;21.30;99.90;;;;;;5038466;28;20449;-85
2021/07/19 08:30:19;;;;;;;0.50;0.30;;;21.20;99.90;;;;;;5038017;28;20436;-85
2021/07/19 08:32:46;;;;;;;0.60;0.50;;;21.10;99.90;;;;;;5039192;28;20483;-86
2021/07/19 08:35:14;;;;;;;0.50;0.30;;;21.10;99.90;;;;;;5038924;28;20446;-84
2021/07/19 08:37:45;;;;;;;0.50;0.30;;;21.00;99.90;;;;;;5038577;28;20447;-85
2021/07/19 08:40:17;;;;;;;0.50;0.33;;;20.80;99.90;;;;;;5037878;28;20504;-84
2021/07/19 08:42:44;;;;;;;0.50;0.30;;;20.80;99.90;;;;;;5037682;28;20512;-86
2021/07/19 08:45:12;;;;;;;0.97;0.97;;;20.80;99.90;;;;;;5037966;28;20443;-86
2021/07/19 08:47:41;;;;;;;0.50;0.30;;;20.70;99.90;;;;;;5038719;28;20804;-85
2021/07/19 08:50:10;;;;;;;0.50;0.30;;;20.30;99.90;;;;;;5038016;28;20497;-83
2021/07/19 08:52:36;;;;;;;0.50;0.37;;;20.30;99.90;;;;;;5037612;28;20479;-84
2021/07/19 08:55:04;;;;;;;0.60;0.60;;;20.30;99.90;;;;;;5037251;28;20455;-85
2021/07/19 08:57:33;;;;;;;0.50;0.30;;;20.40;99.90;;;;;;5037631;28;20435;-85
2021/07/19 09:00:04;;;;;;;0.50;0.30;;;20.40;99.90;;;;;;5037314;28;20441;-86
2021/07/19 09:02:31;;;;;;;0.50;0.30;;;20.30;99.90;;;;;;5036675;28;20463;-85
2021/07/19 09:04:58;;;;;;;0.50;0.30;;;20.40;99.90;;;;;;5036463;28;20447;-86
2021/07/19 09:07:25;;;;;;;0.50;0.30;;;20.40;99.90;;;;;;5037556;28;20438;-86
2021/07/19 09:09:54;;;;;;;0.50;0.30;;;20.50;99.90;;;;;;5037128;28;20443;-85
2021/07/19 09:12:32;;;;;;;0.50;0.30;;;20.60;99.90;;;;;;5037290;28;20995;-85
2021/07/19 09:14:59;;;;;;;0.50;0.30;;;20.60;99.90;;;;;;5036408;28;20450;-85
2021/07/19 09:17:27;;;;;;;0.50;0.30;;;20.70;99.90;;;;;;5036872;28;20436;-85
2021/07/19 09:19:55;;;;;;;0.80;0.80;;;21.00;99.90;;;;;;5037411;28;20451;-85
2021/07/19 09:22:24;;;;;;;0.50;0.30;;;21.30;99.90;;;;;;5036613;28;20455;-85
2021/07/19 09:25:10;;;;;;;0.50;0.30;;;21.60;99.90;;;;;;5036943;28;20437;-85
2021/07/19 09:27:50;;;;;;;0.50;0.30;;;21.80;99.90;;;;;;5038583;28;20448;-86
2021/07/19 09:30:18;;;;;;;0.90;0.90;;;22.00;99.90;;;;;;5037329;28;20783;-85
2021/07/19 09:32:55;;;;;;;0.50;0.30;;;21.90;99.90;;;;;;5037383;28;21024;-86
2021/07/19 09:35:22;;;;;;;0.50;0.40;;;21.80;99.90;;;;;;5036099;28;20446;-85
2021/07/19 09:37:49;;;;;;;0.50;0.30;;;21.80;99.90;;;;;;5036201;28;20446;-86
2021/07/19 09:40:15;;;;;;;0.53;0.53;;;21.80;99.90;;;;;;5036670;28;20980;-83
2021/07/19 09:42:45;;;;;;;0.50;0.30;;;21.70;99.90;;;;;;5037484;28;20456;-86
2021/07/19 09:45:24;;;;;;;0.50;0.30;;;21.60;99.90;;;;;;5037935;28;20448;-86
2021/07/19 09:47:50;;;;;;;0.50;0.30;;;21.50;99.90;;;;;;5037865;28;20435;-86
2021/07/19 09:50:19;;;;;;;0.50;0.40;;;21.50;99.90;;;;;;5038111;28;20452;-85
2021/07/19 09:52:47;;;;;;;0.50;0.30;;;21.70;99.90;;;;;;5037496;28;20483;-86
2021/07/19 09:55:14;;;;;;;0.50;0.30;;;21.80;99.90;;;;;;5038056;28;20440;-85
2021/07/19 09:57:46;;;;;;;0.50;0.30;;;22.00;99.90;;;;;;5038002;28;20442;-85
2021/07/19 10:00:14;;;;;;;0.50;0.30;;;22.30;99.90;;;;;;5037551;28;20506;-85
2021/07/19 10:02:43;;;;;;;2.93;1.83;;;22.50;99.90;;;;;;5037299;28;20456;-86
2021/07/19 10:05:12;;;;;;;0.50;0.30;;;22.60;99.90;;;;;;5037397;28;20518;-86
2021/07/19 10:07:46;;;;;;;0.50;0.30;;;22.90;99.90;;;;;;5037819;28;21019;-85
2021/07/19 10:10:13;;;;;;;0.50;0.30;;;23.10;99.90;;;;;;5037074;28;20472;-85
2021/07/19 10:12:41;;;;;;;0.50;0.40;;;23.00;99.90;;;;;;5036626;28;21316;-86
2021/07/19 10:15:11;;;;;;;0.60;0.40;;;23.00;99.90;;;;;;5036765;28;20457;-85
2021/07/19 10:17:39;;;;;;;0.70;0.70;;;23.00;99.90;;;;;;5036748;28;20986;-86
2021/07/19 10:20:07;;;;;;;0.50;0.30;;;23.00;99.90;;;;;;5037095;28;20441;-85
2021/07/19 10:22:34;;;;;;;0.50;0.40;;;23.00;99.90;;;;;;5036390;28;20470;-86
2021/07/19 10:25:01;;;;;;;0.50;0.30;;;23.10;99.90;;;;;;5036942;28;20454;-86
2021/07/19 10:27:28;;;;;;;1.83;1.70;;;23.20;99.90;;;;;;5037294;28;20446;-86
2021/07/19 10:29:56;;;;;;;1.47;1.23;;;23.50;99.90;;;;;;5035937;28;20971;-86
2021/07/19 10:32:24;;;;;;;0.50;0.33;;;24.30;99.90;;;;;;5036535;28;20479;-86
2021/07/19 10:34:55;;;;;;;0.60;0.60;;;26.00;99.90;;;;;;5036848;28;20947;-86
2021/07/19 10:37:25;;;;;;;0.50;0.50;;;27.30;99.90;;;;;;5037708;28;20468;-87
2021/07/19 10:39:56;;;;;;;0.60;0.60;;;27.50;99.90;;;;;;5037712;28;20434;-86
2021/07/19 10:42:34;;;;;;;0.50;0.30;;;27.70;99.90;;;;;;5036312;28;20801;-86
2021/07/19 10:45:08;;;;;;;0.50;0.30;;;27.40;99.70;;;;;;5037155;28;20427;-83
2021/07/19 10:47:46;;;;;;;0.50;0.30;;;27.10;98.40;;;;;;5035607;28;20970;-85
2021/07/19 10:50:16;;;;;;;0.50;0.30;;;26.60;99.90;;;;;;5035798;28;20820;-83
2021/07/19 10:52:44;;;;;;;0.50;0.30;;;26.30;99.90;;;;;;5036440;28;20922;-86
2021/07/19 10:55:12;;;;;;;0.50;0.30;;;26.00;99.90;;;;;;5037129;28;20943;-85
2021/07/19 10:57:40;;;;;;;0.50;0.30;;;25.90;99.90;;;;;;5035897;28;20442;-85
2021/07/19 11:00:10;;;;;;;0.50;0.43;;;26.20;99.90;;;;;;5035004;28;20453;-82
2021/07/19 11:02:38;;;;;;;0.50;0.30;;;26.70;99.90;;;;;;5036106;28;21042;-86
2021/07/19 11:05:06;;;;;;;4.53;2.97;;;27.00;99.90;;;;;;5038115;28;20786;-85
2021/07/19 11:07:40;;;;;;;0.53;0.53;;;27.20;99.90;;;;;;5037193;28;20525;-86
2021/07/19 11:10:15;;;;;;;0.50;0.30;;;27.60;98.90;;;;;;5036795;28;20447;-84
2021/07/19 11:12:48;;;;;;;0.50;0.30;;;27.70;99.90;;;;;;5035987;28;20481;-85
2021/07/19 11:15:15;;;;;;;0.50;0.30;;;27.10;99.30;;;;;;5036793;28;20505;-86
2021/07/19 11:17:43;;;;;;;0.50;0.30;;;27.10;99.90;;;;;;5042236;28;20438;-86
2021/07/19 11:20:15;;;;;;;0.80;0.80;;;27.30;99.90;;;;;;5041139;28;20438;-84
2021/07/19 11:22:42;;;;;;;0.50;0.30;;;26.90;99.90;;;;;;5041610;28;20450;-86
2021/07/19 11:25:11;;;;;;;1.83;0.60;;;26.70;99.90;;;;;;5040948;28;20966;-85
2021/07/19 11:27:39;;;;;;;0.50;0.30;;;26.50;99.90;;;;;;5041655;28;20445;-85
2021/07/19 11:30:07;;;;;;;0.93;0.93;;;26.40;99.90;;;;;;5041223;28;20465;-85
2021/07/19 11:32:35;;;;;;;0.80;0.60;;;26.40;99.90;;;;;;5040026;28;20485;-86
2021/07/19 11:35:10;;;;;;;0.50;0.30;;;26.40;99.90;;;;;;5039000;28;20499;-85
2021/07/19 11:37:38;;;;;;;0.50;0.50;;;26.10;99.90;;;;;;5040670;28;20438;-86
2021/07/19 11:40:07;;;;;;;0.50;0.30;;;25.90;99.90;;;;;;5039127;28;20446;-82
2021/07/19 11:42:36;;;;;;;0.50;0.30;;;25.70;99.90;;;;;;5038533;28;20466;-84
2021/07/19 11:45:10;;;;;;;0.50;0.47;;;25.00;99.90;;;;;;5039701;28;20505;-86
2021/07/19 11:47:46;;;;;;;0.50;0.50;;;25.00;99.90;;;;;;5039621;28;20456;-86
2021/07/19 11:50:16;;;;;;;0.50;0.30;;;25.00;99.90;;;;;;5038218;28;20811;-86
2021/07/19 11:52:44;;;;;;;0.50;0.30;;;24.80;99.90;;;;;;5040003;28;20474;-84
2021/07/19 11:55:13;;;;;;;0.50;0.30;;;24.80;99.90;;;;;;5039247;28;20449;-85
2021/07/19 11:57:42;;;;;;;0.50;0.40;;;24.90;99.90;;;;;;5038833;28;20439;-85
2021/07/19 12:00:10;;;;;;;0.50;0.30;;;25.10;99.90;;;;;;5036723;28;20446;-85
2021/07/19 12:02:36;;;;;;;0.50;0.30;;;25.20;99.90;;;;;;5035770;28;20454;-85
2021/07/19 12:05:03;;;;;;;0.50;0.30;;;25.40;99.90;;;;;;5038430;28;20443;-84
2021/07/19 12:07:31;;;;;;;0.50;0.30;;;25.80;99.90;;;;;;5038393;28;20446;-85
2021/07/19 12:09:59;;;;;;;0.50;0.30;;;26.30;99.90;;;;;;5038929;28;20454;-85
2021/07/19 12:12:26;;;;;;;0.50;0.30;;;27.80;99.90;;;;;;5038427;28;20476;-86
2021/07/19 12:14:56;;;;;;;0.50;0.30;;;29.30;95.10;;;;;;5038981;28;20458;-85
2021/07/19 12:17:27;;;;;;;0.77;0.50;;;30.70;85.60;;;;;;5039399;28;20449;-85
2021/07/19 12:19:54;;;;;;;0.50;0.30;;;30.80;79.40;;;;;;5038682;28;20481;-86
2021/07/19 12:22:20;;;;;;;0.50;0.40;;;31.60;81.80;;;;;;5038723;28;20462;-86
2021/07/19 12:24:51;;;;;;;0.50;0.30;;;32.60;78.40;;;;;;5038406;28;20446;-85
2021/07/19 12:27:19;;;;;;;0.50;0.30;;;33.00;72.10;;;;;;5036590;28;20444;-86
2021/07/19 12:29:45;;;;;;;0.50;0.30;;;33.30;64.00;;;;;;5039341;28;20450;-85
2021/07/19 12:32:12;;;;;;;1.00;0.70;;;32.70;65.60;;;;;;5038403;28;20482;-85
2021/07/19 12:34:41;;;;;;;0.50;0.40;;;31.60;66.40;;;;;;5038057;28;20500;-82
2021/07/19 12:37:10;;;;;;;0.50;0.30;;;30.50;69.00;;;;;;5039032;28;20446;-86
2021/07/19 12:39:40;;;;;;;0.50;0.30;;;29.80;75.00;;;;;;5040078;28;20451;-86
2021/07/19 12:42:11;;;;;;;0.50;0.30;;;29.30;75.40;;;;;;5040021;28;20720;-86
2021/07/19 12:44:38;;;;;;;0.50;0.43;;;29.10;78.60;;;;;;5041014;28;20450;-86
2021/07/19 12:47:06;;;;;;;2.40;0.70;;;28.70;79.90;;;;;;5040726;28;20442;-85
2021/07/19 12:49:35;;;;;;;0.50;0.30;;;28.30;84.10;;;;;;5039798;28;20471;-84
2021/07/19 12:52:04;;;;;;;0.50;0.30;;;28.00;92.00;;;;;;5038102;28;20467;-86
2021/07/19 12:54:31;;;;;;;0.50;0.30;;;27.60;91.00;;;;;;5038641;28;20450;-85